sensor_id;sensor_type;location;lat;lon;timestamp;P1;durP1;ratioP1;P2;durP2;ratioP2
20271;SDS011;10295;49.812;9.866;2022-12-08T00:01:40;68.87;;;29.33;;
20271;SDS011;10295;49.812;9.866;2022-12-08T00:04:08;69.63;;;30.13;;
20271;SDS011;10295;49.812;9.866;2022-12-08T00:06:39;73.77;;;30.17;;
20271;SDS011;10295;49.812;9.866;2022-12-08T00:09:35;72.57;;;29.77;;
20271;SDS011;10295;49.812;9.866;2022-12-08T00:12:12;70.90;;;28.80;;
20271;SDS011;10295;49.812;9.866;2022-12-08T00:14:42;68.67;;;27.90;;
20271;SDS011;10295;49.812;9.866;2022-12-08T00:17:10;67.13;;;28.33;;
20271;SDS011;10295;49.812;9.866;2022-12-08T00:19:37;61.43;;;27.13;;
20271;SDS011;10295;49.812;9.866;2022-12-08T00:22:05;58.87;;;25.30;;
20271;SDS011;10295;49.812;9.866;2022-12-08T00:24:33;61.10;;;27.60;;
20271;SDS011;10295;49.812;9.866;2022-12-08T00:27:00;62.07;;;26.73;;
20271;SDS011;10295;49.812;9.866;2022-12-08T00:29:28;55.27;;;26.03;;
20271;SDS011;10295;49.812;9.866;2022-12-08T00:31:55;54.80;;;25.97;;
20271;SDS011;10295;49.812;9.866;2022-12-08T00:34:22;55.57;;;24.97;;
20271;SDS011;10295;49.812;9.866;2022-12-08T00:36:49;60.23;;;25.40;;
20271;SDS011;10295;49.812;9.866;2022-12-08T00:39:16;57.23;;;25.37;;
20271;SDS011;10295;49.812;9.866;2022-12-08T00:41:44;54.30;;;24.97;;
20271;SDS011;10295;49.812;9.866;2022-12-08T00:44:30;56.87;;;25.60;;
20271;SDS011;10295;49.812;9.866;2022-12-08T00:46:57;54.37;;;25.23;;
20271;SDS011;10295;49.812;9.866;2022-12-08T00:49:24;53.60;;;24.73;;
20271;SDS011;10295;49.812;9.866;2022-12-08T00:51:51;54.60;;;24.20;;
20271;SDS011;10295;49.812;9.866;2022-12-08T00:54:19;51.63;;;24.50;;
20271;SDS011;10295;49.812;9.866;2022-12-08T00:56:46;56.23;;;25.07;;
20271;SDS011;10295;49.812;9.866;2022-12-08T00:59:13;56.63;;;25.30;;
20271;SDS011;10295;49.812;9.866;2022-12-08T01:01:42;55.37;;;25.50;;
20271;SDS011;10295;49.812;9.866;2022-12-08T01:04:10;56.60;;;25.17;;
20271;SDS011;10295;49.812;9.866;2022-12-08T01:06:38;57.40;;;25.47;;
20271;SDS011;10295;49.812;9.866;2022-12-08T01:09:05;53.40;;;25.63;;
20271;SDS011;10295;49.812;9.866;2022-12-08T01:11:33;57.47;;;25.60;;
20271;SDS011;10295;49.812;9.866;2022-12-08T01:14:00;58.27;;;25.13;;
20271;SDS011;10295;49.812;9.866;2022-12-08T01:16:28;58.83;;;26.17;;
20271;SDS011;10295;49.812;9.866;2022-12-08T01:18:57;62.33;;;26.40;;
20271;SDS011;10295;49.812;9.866;2022-12-08T01:21:24;57.50;;;24.80;;
20271;SDS011;10295;49.812;9.866;2022-12-08T01:23:51;59.40;;;25.53;;
20271;SDS011;10295;49.812;9.866;2022-12-08T01:26:19;61.00;;;25.93;;
20271;SDS011;10295;49.812;9.866;2022-12-08T01:28:46;59.33;;;25.17;;
20271;SDS011;10295;49.812;9.866;2022-12-08T01:31:15;57.57;;;25.10;;
20271;SDS011;10295;49.812;9.866;2022-12-08T01:33:42;58.37;;;25.50;;
20271;SDS011;10295;49.812;9.866;2022-12-08T01:36:18;61.27;;;27.47;;
20271;SDS011;10295;49.812;9.866;2022-12-08T01:38:45;62.73;;;25.77;;
20271;SDS011;10295;49.812;9.866;2022-12-08T01:41:13;59.57;;;25.37;;
20271;SDS011;10295;49.812;9.866;2022-12-08T01:43:50;60.53;;;26.37;;
20271;SDS011;10295;49.812;9.866;2022-12-08T01:46:20;58.80;;;25.00;;
20271;SDS011;10295;49.812;9.866;2022-12-08T01:48:47;59.13;;;25.40;;
20271;SDS011;10295;49.812;9.866;2022-12-08T01:51:15;59.07;;;25.60;;
20271;SDS011;10295;49.812;9.866;2022-12-08T01:53:43;62.57;;;27.10;;
20271;SDS011;10295;49.812;9.866;2022-12-08T01:56:11;56.77;;;25.83;;
20271;SDS011;10295;49.812;9.866;2022-12-08T01:58:42;57.83;;;26.33;;
20271;SDS011;10295;49.812;9.866;2022-12-08T02:01:11;56.37;;;25.40;;
20271;SDS011;10295;49.812;9.866;2022-12-08T02:06:36;59.83;;;26.40;;
20271;SDS011;10295;49.812;9.866;2022-12-08T02:09:05;56.87;;;25.83;;
20271;SDS011;10295;49.812;9.866;2022-12-08T02:11:33;52.23;;;24.53;;
20271;SDS011;10295;49.812;9.866;2022-12-08T02:14:00;58.47;;;26.20;;
20271;SDS011;10295;49.812;9.866;2022-12-08T02:16:37;60.73;;;27.53;;
20271;SDS011;10295;49.812;9.866;2022-12-08T02:29:50;56.10;;;26.07;;
20271;SDS011;10295;49.812;9.866;2022-12-08T02:37:42;56.53;;;25.50;;
20271;SDS011;10295;49.812;9.866;2022-12-08T02:40:21;53.80;;;24.17;;
20271;SDS011;10295;49.812;9.866;2022-12-08T02:42:57;54.17;;;23.93;;
20271;SDS011;10295;49.812;9.866;2022-12-08T02:47:57;54.73;;;25.17;;
20271;SDS011;10295;49.812;9.866;2022-12-08T02:50:24;57.33;;;25.53;;
20271;SDS011;10295;49.812;9.866;2022-12-08T02:52:51;60.77;;;26.97;;
20271;SDS011;10295;49.812;9.866;2022-12-08T03:08:23;55.03;;;23.60;;
20271;SDS011;10295;49.812;9.866;2022-12-08T03:11:27;56.70;;;23.93;;
20271;SDS011;10295;49.812;9.866;2022-12-08T03:13:47;55.43;;;23.60;;
20271;SDS011;10295;49.812;9.866;2022-12-08T03:16:16;54.53;;;23.70;;
20271;SDS011;10295;49.812;9.866;2022-12-08T03:18:50;54.40;;;22.80;;
20271;SDS011;10295;49.812;9.866;2022-12-08T03:21:18;56.10;;;24.77;;
20271;SDS011;10295;49.812;9.866;2022-12-08T03:23:47;58.67;;;24.23;;
20271;SDS011;10295;49.812;9.866;2022-12-08T03:26:22;55.57;;;23.80;;
20271;SDS011;10295;49.812;9.866;2022-12-08T03:28:51;56.03;;;24.87;;
20271;SDS011;10295;49.812;9.866;2022-12-08T03:31:18;55.33;;;24.43;;
20271;SDS011;10295;49.812;9.866;2022-12-08T03:33:46;49.33;;;21.87;;
20271;SDS011;10295;49.812;9.866;2022-12-08T03:36:16;59.90;;;23.83;;
20271;SDS011;10295;49.812;9.866;2022-12-08T03:38:44;53.60;;;23.47;;
20271;SDS011;10295;49.812;9.866;2022-12-08T03:41:11;54.63;;;22.97;;
20271;SDS011;10295;49.812;9.866;2022-12-08T03:43:45;56.83;;;24.03;;
20271;SDS011;10295;49.812;9.866;2022-12-08T03:46:13;57.00;;;24.57;;
20271;SDS011;10295;49.812;9.866;2022-12-08T03:48:41;57.23;;;23.60;;
20271;SDS011;10295;49.812;9.866;2022-12-08T03:51:08;57.73;;;23.50;;
20271;SDS011;10295;49.812;9.866;2022-12-08T03:53:35;60.83;;;24.70;;
20271;SDS011;10295;49.812;9.866;2022-12-08T03:56:04;54.07;;;22.07;;
20271;SDS011;10295;49.812;9.866;2022-12-08T03:58:31;51.27;;;23.40;;
20271;SDS011;10295;49.812;9.866;2022-12-08T04:01:02;46.27;;;21.30;;
20271;SDS011;10295;49.812;9.866;2022-12-08T04:03:29;47.77;;;21.67;;
20271;SDS011;10295;49.812;9.866;2022-12-08T04:05:57;51.03;;;22.50;;
20271;SDS011;10295;49.812;9.866;2022-12-08T04:08:24;49.20;;;21.43;;
20271;SDS011;10295;49.812;9.866;2022-12-08T04:10:51;49.47;;;22.53;;
20271;SDS011;10295;49.812;9.866;2022-12-08T04:13:18;51.00;;;21.47;;
20271;SDS011;10295;49.812;9.866;2022-12-08T04:15:45;52.63;;;22.40;;
20271;SDS011;10295;49.812;9.866;2022-12-08T04:18:13;46.80;;;21.97;;
20271;SDS011;10295;49.812;9.866;2022-12-08T04:20:43;49.30;;;20.70;;
20271;SDS011;10295;49.812;9.866;2022-12-08T04:23:11;47.60;;;21.90;;
20271;SDS011;10295;49.812;9.866;2022-12-08T04:25:38;51.53;;;22.30;;
20271;SDS011;10295;49.812;9.866;2022-12-08T04:28:05;51.00;;;22.47;;
20271;SDS011;10295;49.812;9.866;2022-12-08T04:30:32;53.87;;;22.80;;
20271;SDS011;10295;49.812;9.866;2022-12-08T04:33:00;48.57;;;21.90;;
20271;SDS011;10295;49.812;9.866;2022-12-08T04:35:27;53.03;;;21.27;;
20271;SDS011;10295;49.812;9.866;2022-12-08T04:37:54;48.13;;;22.00;;
20271;SDS011;10295;49.812;9.866;2022-12-08T04:40:22;47.53;;;21.33;;
20271;SDS011;10295;49.812;9.866;2022-12-08T04:42:49;56.30;;;22.97;;
20271;SDS011;10295;49.812;9.866;2022-12-08T04:45:16;50.33;;;21.53;;
20271;SDS011;10295;49.812;9.866;2022-12-08T04:47:43;49.10;;;21.73;;
20271;SDS011;10295;49.812;9.866;2022-12-08T04:50:10;50.23;;;21.63;;
20271;SDS011;10295;49.812;9.866;2022-12-08T04:52:38;52.73;;;21.63;;
20271;SDS011;10295;49.812;9.866;2022-12-08T04:55:05;46.67;;;20.07;;
20271;SDS011;10295;49.812;9.866;2022-12-08T04:57:32;51.53;;;21.77;;
20271;SDS011;10295;49.812;9.866;2022-12-08T04:59:59;52.23;;;21.73;;
20271;SDS011;10295;49.812;9.866;2022-12-08T05:02:27;44.73;;;19.77;;
20271;SDS011;10295;49.812;9.866;2022-12-08T05:04:54;42.50;;;19.63;;
20271;SDS011;10295;49.812;9.866;2022-12-08T05:07:21;49.00;;;20.53;;
20271;SDS011;10295;49.812;9.866;2022-12-08T05:09:49;42.80;;;20.27;;
20271;SDS011;10295;49.812;9.866;2022-12-08T05:12:16;49.10;;;20.37;;
20271;SDS011;10295;49.812;9.866;2022-12-08T05:14:43;49.73;;;21.07;;
20271;SDS011;10295;49.812;9.866;2022-12-08T05:17:10;44.17;;;18.67;;
20271;SDS011;10295;49.812;9.866;2022-12-08T05:19:37;41.27;;;17.37;;
20271;SDS011;10295;49.812;9.866;2022-12-08T05:22:04;42.07;;;19.40;;
20271;SDS011;10295;49.812;9.866;2022-12-08T05:24:31;45.23;;;19.17;;
20271;SDS011;10295;49.812;9.866;2022-12-08T05:26:58;43.53;;;18.77;;
20271;SDS011;10295;49.812;9.866;2022-12-08T05:29:26;48.33;;;19.37;;
20271;SDS011;10295;49.812;9.866;2022-12-08T05:31:53;45.87;;;19.70;;
20271;SDS011;10295;49.812;9.866;2022-12-08T05:34:20;42.30;;;19.07;;
20271;SDS011;10295;49.812;9.866;2022-12-08T05:36:47;44.67;;;20.03;;
20271;SDS011;10295;49.812;9.866;2022-12-08T05:39:14;45.47;;;19.67;;
20271;SDS011;10295;49.812;9.866;2022-12-08T05:41:41;46.23;;;20.07;;
20271;SDS011;10295;49.812;9.866;2022-12-08T05:44:08;43.77;;;19.43;;
20271;SDS011;10295;49.812;9.866;2022-12-08T05:46:35;44.43;;;19.83;;
20271;SDS011;10295;49.812;9.866;2022-12-08T05:49:03;41.00;;;19.40;;
20271;SDS011;10295;49.812;9.866;2022-12-08T05:51:30;43.80;;;18.63;;
20271;SDS011;10295;49.812;9.866;2022-12-08T05:53:57;43.47;;;19.03;;
20271;SDS011;10295;49.812;9.866;2022-12-08T05:56:24;42.00;;;19.67;;
20271;SDS011;10295;49.812;9.866;2022-12-08T05:58:51;38.67;;;18.67;;
20271;SDS011;10295;49.812;9.866;2022-12-08T06:01:22;43.33;;;18.63;;
20271;SDS011;10295;49.812;9.866;2022-12-08T06:03:50;45.50;;;19.40;;
20271;SDS011;10295;49.812;9.866;2022-12-08T06:06:17;42.77;;;18.73;;
20271;SDS011;10295;49.812;9.866;2022-12-08T06:08:45;39.83;;;18.83;;
20271;SDS011;10295;49.812;9.866;2022-12-08T06:13:45;39.53;;;17.37;;
20271;SDS011;10295;49.812;9.866;2022-12-08T06:16:12;39.80;;;17.90;;
20271;SDS011;10295;49.812;9.866;2022-12-08T06:18:40;41.20;;;17.40;;
20271;SDS011;10295;49.812;9.866;2022-12-08T06:21:08;38.17;;;17.80;;
20271;SDS011;10295;49.812;9.866;2022-12-08T06:23:36;40.13;;;18.23;;
20271;SDS011;10295;49.812;9.866;2022-12-08T06:26:03;39.07;;;18.27;;
20271;SDS011;10295;49.812;9.866;2022-12-08T06:28:31;39.13;;;19.07;;
20271;SDS011;10295;49.812;9.866;2022-12-08T06:30:58;42.60;;;18.90;;
20271;SDS011;10295;49.812;9.866;2022-12-08T06:33:26;41.73;;;19.23;;
20271;SDS011;10295;49.812;9.866;2022-12-08T06:35:53;37.73;;;17.70;;
20271;SDS011;10295;49.812;9.866;2022-12-08T06:38:20;38.50;;;18.30;;
20271;SDS011;10295;49.812;9.866;2022-12-08T06:40:53;41.87;;;18.23;;
20271;SDS011;10295;49.812;9.866;2022-12-08T06:43:21;46.87;;;19.37;;
20271;SDS011;10295;49.812;9.866;2022-12-08T06:45:48;43.73;;;18.37;;
20271;SDS011;10295;49.812;9.866;2022-12-08T06:48:15;40.43;;;18.17;;
20271;SDS011;10295;49.812;9.866;2022-12-08T06:50:42;40.97;;;18.30;;
20271;SDS011;10295;49.812;9.866;2022-12-08T06:53:11;39.57;;;17.87;;
20271;SDS011;10295;49.812;9.866;2022-12-08T06:55:44;40.23;;;17.37;;
20271;SDS011;10295;49.812;9.866;2022-12-08T06:58:27;40.23;;;18.40;;
20271;SDS011;10295;49.812;9.866;2022-12-08T07:00:54;37.17;;;18.10;;
20271;SDS011;10295;49.812;9.866;2022-12-08T07:03:22;43.90;;;19.20;;
20271;SDS011;10295;49.812;9.866;2022-12-08T07:05:49;37.47;;;16.33;;
20271;SDS011;10295;49.812;9.866;2022-12-08T07:08:16;37.33;;;17.30;;
20271;SDS011;10295;49.812;9.866;2022-12-08T07:10:43;39.53;;;18.40;;
20271;SDS011;10295;49.812;9.866;2022-12-08T07:13:10;36.60;;;17.50;;
20271;SDS011;10295;49.812;9.866;2022-12-08T07:15:37;40.07;;;17.33;;
20271;SDS011;10295;49.812;9.866;2022-12-08T07:18:04;37.83;;;17.57;;
20271;SDS011;10295;49.812;9.866;2022-12-08T07:20:31;38.83;;;17.80;;
20271;SDS011;10295;49.812;9.866;2022-12-08T07:22:58;37.93;;;18.33;;
20271;SDS011;10295;49.812;9.866;2022-12-08T07:25:26;35.57;;;17.53;;
20271;SDS011;10295;49.812;9.866;2022-12-08T07:27:53;35.03;;;16.70;;
20271;SDS011;10295;49.812;9.866;2022-12-08T07:30:20;37.90;;;15.97;;
20271;SDS011;10295;49.812;9.866;2022-12-08T07:32:47;35.23;;;15.77;;
20271;SDS011;10295;49.812;9.866;2022-12-08T07:35:14;34.40;;;15.33;;
20271;SDS011;10295;49.812;9.866;2022-12-08T07:37:41;34.00;;;15.33;;
20271;SDS011;10295;49.812;9.866;2022-12-08T07:40:08;39.10;;;16.60;;
20271;SDS011;10295;49.812;9.866;2022-12-08T07:42:36;35.53;;;16.77;;
20271;SDS011;10295;49.812;9.866;2022-12-08T07:45:03;36.40;;;16.33;;
20271;SDS011;10295;49.812;9.866;2022-12-08T07:47:30;36.37;;;16.00;;
20271;SDS011;10295;49.812;9.866;2022-12-08T07:49:57;32.87;;;14.93;;
20271;SDS011;10295;49.812;9.866;2022-12-08T07:52:24;34.80;;;17.03;;
20271;SDS011;10295;49.812;9.866;2022-12-08T07:54:51;41.97;;;19.97;;
20271;SDS011;10295;49.812;9.866;2022-12-08T07:57:18;37.73;;;16.73;;
20271;SDS011;10295;49.812;9.866;2022-12-08T07:59:46;38.63;;;17.80;;
20271;SDS011;10295;49.812;9.866;2022-12-08T08:02:16;43.13;;;20.33;;
20271;SDS011;10295;49.812;9.866;2022-12-08T08:04:51;37.83;;;16.90;;
20271;SDS011;10295;49.812;9.866;2022-12-08T08:07:18;35.17;;;17.67;;
20271;SDS011;10295;49.812;9.866;2022-12-08T08:09:45;37.07;;;17.43;;
20271;SDS011;10295;49.812;9.866;2022-12-08T08:12:12;34.27;;;16.07;;
20271;SDS011;10295;49.812;9.866;2022-12-08T08:14:57;32.70;;;15.43;;
20271;SDS011;10295;49.812;9.866;2022-12-08T08:17:25;34.70;;;14.90;;
20271;SDS011;10295;49.812;9.866;2022-12-08T08:19:52;31.80;;;14.87;;
20271;SDS011;10295;49.812;9.866;2022-12-08T08:22:19;34.13;;;15.23;;
20271;SDS011;10295;49.812;9.866;2022-12-08T08:24:46;29.87;;;14.00;;
20271;SDS011;10295;49.812;9.866;2022-12-08T08:27:13;32.97;;;15.47;;
20271;SDS011;10295;49.812;9.866;2022-12-08T08:29:40;29.83;;;14.07;;
20271;SDS011;10295;49.812;9.866;2022-12-08T08:32:08;31.00;;;13.70;;
20271;SDS011;10295;49.812;9.866;2022-12-08T08:34:35;31.17;;;14.77;;
20271;SDS011;10295;49.812;9.866;2022-12-08T08:37:02;33.27;;;14.57;;
20271;SDS011;10295;49.812;9.866;2022-12-08T08:39:29;31.27;;;13.67;;
20271;SDS011;10295;49.812;9.866;2022-12-08T08:41:57;29.37;;;13.20;;
20271;SDS011;10295;49.812;9.866;2022-12-08T08:44:24;28.67;;;12.07;;
20271;SDS011;10295;49.812;9.866;2022-12-08T08:46:51;27.90;;;13.47;;
20271;SDS011;10295;49.812;9.866;2022-12-08T08:49:18;25.73;;;13.10;;
20271;SDS011;10295;49.812;9.866;2022-12-08T08:51:46;24.40;;;12.50;;
20271;SDS011;10295;49.812;9.866;2022-12-08T08:54:13;30.60;;;15.90;;
20271;SDS011;10295;49.812;9.866;2022-12-08T08:56:40;31.37;;;14.27;;
20271;SDS011;10295;49.812;9.866;2022-12-08T08:59:08;31.40;;;15.13;;
20271;SDS011;10295;49.812;9.866;2022-12-08T09:01:35;24.20;;;12.03;;
20271;SDS011;10295;49.812;9.866;2022-12-08T09:04:03;24.93;;;11.93;;
20271;SDS011;10295;49.812;9.866;2022-12-08T09:06:30;29.57;;;12.07;;
20271;SDS011;10295;49.812;9.866;2022-12-08T09:08:57;25.30;;;12.20;;
20271;SDS011;10295;49.812;9.866;2022-12-08T09:11:24;24.57;;;12.77;;
20271;SDS011;10295;49.812;9.866;2022-12-08T09:13:52;23.33;;;11.67;;
20271;SDS011;10295;49.812;9.866;2022-12-08T09:16:19;23.90;;;11.70;;
20271;SDS011;10295;49.812;9.866;2022-12-08T09:18:47;26.67;;;11.63;;
20271;SDS011;10295;49.812;9.866;2022-12-08T09:21:16;24.00;;;11.30;;
20271;SDS011;10295;49.812;9.866;2022-12-08T09:23:48;26.10;;;12.93;;
20271;SDS011;10295;49.812;9.866;2022-12-08T09:26:15;24.67;;;12.47;;
20271;SDS011;10295;49.812;9.866;2022-12-08T09:28:42;22.87;;;11.63;;
20271;SDS011;10295;49.812;9.866;2022-12-08T09:31:12;23.73;;;11.53;;
20271;SDS011;10295;49.812;9.866;2022-12-08T09:33:39;28.07;;;12.27;;
20271;SDS011;10295;49.812;9.866;2022-12-08T09:36:06;21.70;;;11.33;;
20271;SDS011;10295;49.812;9.866;2022-12-08T09:38:34;22.80;;;11.37;;
20271;SDS011;10295;49.812;9.866;2022-12-08T09:41:02;27.03;;;12.27;;
20271;SDS011;10295;49.812;9.866;2022-12-08T09:45:57;22.87;;;11.60;;
20271;SDS011;10295;49.812;9.866;2022-12-08T09:48:29;22.63;;;11.13;;
20271;SDS011;10295;49.812;9.866;2022-12-08T09:50:57;23.00;;;11.37;;
20271;SDS011;10295;49.812;9.866;2022-12-08T09:53:26;22.00;;;10.77;;
20271;SDS011;10295;49.812;9.866;2022-12-08T09:56:16;22.37;;;10.53;;
20271;SDS011;10295;49.812;9.866;2022-12-08T10:01:30;23.17;;;11.20;;
20271;SDS011;10295;49.812;9.866;2022-12-08T10:03:58;21.17;;;11.10;;
20271;SDS011;10295;49.812;9.866;2022-12-08T10:14:24;21.67;;;10.47;;
20271;SDS011;10295;49.812;9.866;2022-12-08T10:16:54;23.90;;;10.77;;
20271;SDS011;10295;49.812;9.866;2022-12-08T10:19:22;21.03;;;10.87;;
20271;SDS011;10295;49.812;9.866;2022-12-08T10:21:50;22.83;;;10.33;;
20271;SDS011;10295;49.812;9.866;2022-12-08T10:24:25;21.10;;;10.43;;
20271;SDS011;10295;49.812;9.866;2022-12-08T10:26:57;21.07;;;11.03;;
20271;SDS011;10295;49.812;9.866;2022-12-08T10:29:24;22.93;;;11.83;;
20271;SDS011;10295;49.812;9.866;2022-12-08T10:31:51;22.03;;;11.60;;
20271;SDS011;10295;49.812;9.866;2022-12-08T10:34:22;21.30;;;10.67;;
20271;SDS011;10295;49.812;9.866;2022-12-08T10:36:50;28.00;;;10.67;;
20271;SDS011;10295;49.812;9.866;2022-12-08T10:41:59;22.80;;;11.97;;
20271;SDS011;10295;49.812;9.866;2022-12-08T10:44:26;22.90;;;10.70;;
20271;SDS011;10295;49.812;9.866;2022-12-08T10:46:53;24.07;;;11.80;;
20271;SDS011;10295;49.812;9.866;2022-12-08T10:49:28;22.30;;;11.40;;
20271;SDS011;10295;49.812;9.866;2022-12-08T10:51:57;29.40;;;14.37;;
20271;SDS011;10295;49.812;9.866;2022-12-08T10:54:42;30.27;;;14.03;;
20271;SDS011;10295;49.812;9.866;2022-12-08T10:57:11;21.13;;;10.47;;
20271;SDS011;10295;49.812;9.866;2022-12-08T10:59:45;21.73;;;11.53;;
20271;SDS011;10295;49.812;9.866;2022-12-08T11:02:18;22.83;;;11.57;;
20271;SDS011;10295;49.812;9.866;2022-12-08T11:04:46;21.03;;;10.30;;
20271;SDS011;10295;49.812;9.866;2022-12-08T11:07:19;23.60;;;11.13;;
20271;SDS011;10295;49.812;9.866;2022-12-08T11:09:47;21.60;;;10.77;;
20271;SDS011;10295;49.812;9.866;2022-12-08T11:12:16;21.13;;;10.40;;
20271;SDS011;10295;49.812;9.866;2022-12-08T11:17:15;22.17;;;10.87;;
20271;SDS011;10295;49.812;9.866;2022-12-08T11:19:44;22.07;;;10.83;;
20271;SDS011;10295;49.812;9.866;2022-12-08T11:22:22;20.00;;;10.67;;
20271;SDS011;10295;49.812;9.866;2022-12-08T11:24:57;22.93;;;11.40;;
20271;SDS011;10295;49.812;9.866;2022-12-08T11:27:25;22.77;;;10.83;;
20271;SDS011;10295;49.812;9.866;2022-12-08T11:29:52;22.60;;;10.43;;
20271;SDS011;10295;49.812;9.866;2022-12-08T11:32:19;18.93;;;9.80;;
20271;SDS011;10295;49.812;9.866;2022-12-08T11:34:58;26.20;;;12.13;;
20271;SDS011;10295;49.812;9.866;2022-12-08T11:37:31;26.73;;;13.60;;
20271;SDS011;10295;49.812;9.866;2022-12-08T11:40:02;21.93;;;11.30;;
20271;SDS011;10295;49.812;9.866;2022-12-08T11:42:32;21.00;;;10.97;;
20271;SDS011;10295;49.812;9.866;2022-12-08T11:45:03;21.97;;;11.30;;
20271;SDS011;10295;49.812;9.866;2022-12-08T11:51:06;20.77;;;10.43;;
20271;SDS011;10295;49.812;9.866;2022-12-08T11:53:26;20.87;;;9.93;;
20271;SDS011;10295;49.812;9.866;2022-12-08T11:55:56;19.57;;;9.90;;
20271;SDS011;10295;49.812;9.866;2022-12-08T11:58:25;21.97;;;9.63;;
20271;SDS011;10295;49.812;9.866;2022-12-08T12:00:55;20.23;;;10.23;;
20271;SDS011;10295;49.812;9.866;2022-12-08T12:03:38;22.87;;;10.73;;
20271;SDS011;10295;49.812;9.866;2022-12-08T12:09:24;24.90;;;11.30;;
20271;SDS011;10295;49.812;9.866;2022-12-08T12:19:51;23.40;;;11.53;;
20271;SDS011;10295;49.812;9.866;2022-12-08T12:22:19;28.00;;;11.67;;
20271;SDS011;10295;49.812;9.866;2022-12-08T12:24:48;23.07;;;11.30;;
20271;SDS011;10295;49.812;9.866;2022-12-08T12:27:24;20.53;;;10.27;;
20271;SDS011;10295;49.812;9.866;2022-12-08T12:29:55;24.67;;;11.97;;
20271;SDS011;10295;49.812;9.866;2022-12-08T12:32:24;24.23;;;10.93;;
20271;SDS011;10295;49.812;9.866;2022-12-08T12:34:52;23.23;;;11.73;;
20271;SDS011;10295;49.812;9.866;2022-12-08T12:37:22;24.27;;;11.50;;
20271;SDS011;10295;49.812;9.866;2022-12-08T12:40:00;24.43;;;11.23;;
20271;SDS011;10295;49.812;9.866;2022-12-08T12:42:36;22.80;;;11.40;;
20271;SDS011;10295;49.812;9.866;2022-12-08T12:47:45;21.90;;;10.80;;
20271;SDS011;10295;49.812;9.866;2022-12-08T12:53:02;21.83;;;11.37;;
20271;SDS011;10295;49.812;9.866;2022-12-08T13:03:37;21.50;;;10.30;;
20271;SDS011;10295;49.812;9.866;2022-12-08T13:06:04;22.27;;;10.13;;
20271;SDS011;10295;49.812;9.866;2022-12-08T13:08:40;24.13;;;10.50;;
20271;SDS011;10295;49.812;9.866;2022-12-08T13:11:08;22.07;;;11.00;;
20271;SDS011;10295;49.812;9.866;2022-12-08T13:13:36;20.10;;;10.30;;
20271;SDS011;10295;49.812;9.866;2022-12-08T13:16:04;23.73;;;10.67;;
20271;SDS011;10295;49.812;9.866;2022-12-08T13:18:48;19.57;;;10.23;;
20271;SDS011;10295;49.812;9.866;2022-12-08T13:21:20;21.87;;;10.30;;
20271;SDS011;10295;49.812;9.866;2022-12-08T13:26:24;19.30;;;8.90;;
20271;SDS011;10295;49.812;9.866;2022-12-08T13:34:05;18.67;;;9.60;;
20271;SDS011;10295;49.812;9.866;2022-12-08T13:36:37;19.63;;;9.63;;
20271;SDS011;10295;49.812;9.866;2022-12-08T13:39:05;18.83;;;9.43;;
20271;SDS011;10295;49.812;9.866;2022-12-08T13:41:40;20.03;;;9.33;;
20271;SDS011;10295;49.812;9.866;2022-12-08T13:44:11;20.90;;;9.77;;
20271;SDS011;10295;49.812;9.866;2022-12-08T13:46:59;21.50;;;10.10;;
20271;SDS011;10295;49.812;9.866;2022-12-08T13:53:17;18.03;;;8.70;;
20271;SDS011;10295;49.812;9.866;2022-12-08T13:56:05;19.77;;;9.27;;
20271;SDS011;10295;49.812;9.866;2022-12-08T13:59:05;19.50;;;8.80;;
20271;SDS011;10295;49.812;9.866;2022-12-08T14:01:34;22.33;;;9.40;;
20271;SDS011;10295;49.812;9.866;2022-12-08T14:04:11;16.87;;;8.17;;
20271;SDS011;10295;49.812;9.866;2022-12-08T14:06:59;17.83;;;9.00;;
20271;SDS011;10295;49.812;9.866;2022-12-08T14:09:30;19.13;;;9.30;;
20271;SDS011;10295;49.812;9.866;2022-12-08T14:12:03;20.20;;;9.70;;
20271;SDS011;10295;49.812;9.866;2022-12-08T14:14:32;22.97;;;10.17;;
20271;SDS011;10295;49.812;9.866;2022-12-08T14:17:21;17.00;;;8.53;;
20271;SDS011;10295;49.812;9.866;2022-12-08T14:19:58;20.27;;;9.37;;
20271;SDS011;10295;49.812;9.866;2022-12-08T14:22:35;19.23;;;9.00;;
20271;SDS011;10295;49.812;9.866;2022-12-08T14:25:04;19.77;;;9.97;;
20271;SDS011;10295;49.812;9.866;2022-12-08T14:27:35;19.70;;;9.40;;
20271;SDS011;10295;49.812;9.866;2022-12-08T14:30:12;17.17;;;8.50;;
20271;SDS011;10295;49.812;9.866;2022-12-08T14:33:08;18.47;;;8.70;;
20271;SDS011;10295;49.812;9.866;2022-12-08T14:35:30;17.73;;;8.73;;
20271;SDS011;10295;49.812;9.866;2022-12-08T14:38:01;19.97;;;9.27;;
20271;SDS011;10295;49.812;9.866;2022-12-08T14:40:32;19.60;;;9.27;;
20271;SDS011;10295;49.812;9.866;2022-12-08T14:50:55;19.93;;;9.17;;
20271;SDS011;10295;49.812;9.866;2022-12-08T14:53:23;18.47;;;8.63;;
20271;SDS011;10295;49.812;9.866;2022-12-08T14:55:50;17.40;;;8.30;;
20271;SDS011;10295;49.812;9.866;2022-12-08T14:58:23;18.80;;;8.50;;
20271;SDS011;10295;49.812;9.866;2022-12-08T15:00:53;18.63;;;9.37;;
20271;SDS011;10295;49.812;9.866;2022-12-08T15:03:26;19.23;;;8.53;;
20271;SDS011;10295;49.812;9.866;2022-12-08T15:05:55;18.63;;;9.20;;
20271;SDS011;10295;49.812;9.866;2022-12-08T15:08:23;18.90;;;9.00;;
20271;SDS011;10295;49.812;9.866;2022-12-08T15:13:42;16.57;;;8.97;;
20271;SDS011;10295;49.812;9.866;2022-12-08T15:19:01;18.80;;;9.63;;
20271;SDS011;10295;49.812;9.866;2022-12-08T15:21:29;19.20;;;9.13;;
20271;SDS011;10295;49.812;9.866;2022-12-08T15:23:58;20.13;;;9.83;;
20271;SDS011;10295;49.812;9.866;2022-12-08T15:26:25;19.97;;;9.13;;
20271;SDS011;10295;49.812;9.866;2022-12-08T15:28:53;19.10;;;9.23;;
20271;SDS011;10295;49.812;9.866;2022-12-08T15:31:21;19.47;;;10.17;;
20271;SDS011;10295;49.812;9.866;2022-12-08T15:33:48;22.97;;;10.10;;
20271;SDS011;10295;49.812;9.866;2022-12-08T15:36:15;21.00;;;10.27;;
20271;SDS011;10295;49.812;9.866;2022-12-08T15:38:42;19.10;;;9.57;;
20271;SDS011;10295;49.812;9.866;2022-12-08T15:41:09;21.93;;;9.87;;
20271;SDS011;10295;49.812;9.866;2022-12-08T15:43:40;22.53;;;9.70;;
20271;SDS011;10295;49.812;9.866;2022-12-08T15:46:07;19.23;;;9.60;;
20271;SDS011;10295;49.812;9.866;2022-12-08T15:48:35;22.67;;;9.93;;
20271;SDS011;10295;49.812;9.866;2022-12-08T15:51:03;22.77;;;10.10;;
20271;SDS011;10295;49.812;9.866;2022-12-08T15:53:30;22.13;;;10.27;;
20271;SDS011;10295;49.812;9.866;2022-12-08T15:55:57;22.07;;;9.93;;
20271;SDS011;10295;49.812;9.866;2022-12-08T15:58:45;20.60;;;10.23;;
20271;SDS011;10295;49.812;9.866;2022-12-08T16:01:22;21.43;;;9.97;;
20271;SDS011;10295;49.812;9.866;2022-12-08T16:03:50;19.03;;;9.93;;
20271;SDS011;10295;49.812;9.866;2022-12-08T16:06:37;20.60;;;10.57;;
20271;SDS011;10295;49.812;9.866;2022-12-08T16:09:27;22.37;;;10.67;;
20271;SDS011;10295;49.812;9.866;2022-12-08T16:11:55;24.73;;;11.70;;
20271;SDS011;10295;49.812;9.866;2022-12-08T16:14:46;21.10;;;10.67;;
20271;SDS011;10295;49.812;9.866;2022-12-08T16:17:33;19.50;;;9.97;;
20271;SDS011;10295;49.812;9.866;2022-12-08T16:20:01;21.40;;;9.57;;
20271;SDS011;10295;49.812;9.866;2022-12-08T16:22:29;23.00;;;9.87;;
20271;SDS011;10295;49.812;9.866;2022-12-08T16:25:17;20.47;;;10.03;;
20271;SDS011;10295;49.812;9.866;2022-12-08T16:27:47;22.13;;;10.40;;